Time;durP1;ratioP1;P1;durP2;ratioP2;P2;SDS_P1;SDS_P2;PMS_P1;PMS_P2;Temp;Humidity;BMP_temperature;BMP_pressure;BME280_temperature;BME280_humidity;BME280_pressure;Samples;Min_cycle;Max_cycle;Signal;HPM_P1;HPM_P2
2022/06/02 00:01:05;;;;;;;7.47;6.87;;;15.30;22.80;;;;;;4974409;28;20903;-70
2022/06/02 00:03:41;;;;;;;8.43;7.60;;;15.30;22.30;;;;;;4973184;28;20399;-68
2022/06/02 00:06:25;;;;;;;14.53;8.20;;;15.30;22.30;;;;;;4974167;28;20447;-69
2022/06/02 00:09:35;;;;;;;7.40;7.00;;;15.20;22.80;;;;;;4974361;28;20426;-70
2022/06/02 00:12:03;;;;;;;6.83;6.40;;;15.20;22.70;;;;;;4973805;28;20892;-70
2022/06/02 00:14:44;;;;;;;7.80;6.83;;;15.00;23.60;;;;;;4973899;28;20449;-69
2022/06/02 00:17:28;;;;;;;7.53;7.03;;;14.70;24.30;;;;;;4974030;28;20418;-69
2022/06/02 00:20:12;;;;;;;6.63;6.23;;;14.70;24.60;;;;;;4973706;28;20426;-69
2022/06/02 00:22:56;;;;;;;7.07;6.57;;;14.70;24.40;;;;;;4973468;28;20497;-69
2022/06/02 00:25:26;;;;;;;7.13;6.70;;;14.80;24.40;;;;;;4973840;28;20953;-71
2022/06/02 00:28:01;;;;;;;6.37;5.97;;;14.70;24.70;;;;;;4974950;28;20420;-70
2022/06/02 00:30:52;;;;;;;7.30;6.70;;;14.70;24.60;;;;;;4977556;28;20455;-69
2022/06/02 00:33:30;;;;;;;7.03;6.53;;;14.60;24.70;;;;;;4976873;28;20431;-70
2022/06/02 00:35:57;;;;;;;5.70;5.40;;;14.60;24.80;;;;;;4976946;28;20530;-69
2022/06/02 00:38:30;;;;;;;6.03;5.60;;;14.60;24.30;;;;;;4977500;28;20516;-71
2022/06/02 00:41:17;;;;;;;6.20;5.90;;;14.40;24.50;;;;;;4977199;28;20416;-69
2022/06/02 00:43:51;;;;;;;6.73;6.10;;;14.30;25.10;;;;;;4977472;28;20498;-70
2022/06/02 00:46:20;;;;;;;5.67;5.27;;;14.20;25.50;;;;;;4977007;28;20454;-69
2022/06/02 00:48:52;;;;;;;5.50;5.10;;;14.20;25.20;;;;;;4977204;28;20765;-70
2022/06/02 00:51:26;;;;;;;5.97;5.10;;;14.10;25.40;;;;;;4976607;28;20412;-69
2022/06/02 00:57:39;;;;;;;6.70;6.20;;;14.00;25.80;;;;;;4976895;28;20831;-70
2022/06/02 01:00:05;;;;;;;6.03;5.40;;;13.80;26.40;;;;;;4975333;28;20417;-69
2022/06/02 01:02:40;;;;;;;5.20;4.90;;;13.70;26.50;;;;;;4976384;28;20484;-69
2022/06/02 01:05:06;;;;;;;5.20;4.83;;;13.70;26.50;;;;;;4977875;28;20243;-69
2022/06/02 01:07:46;;;;;;;5.87;5.47;;;13.70;26.20;;;;;;4975486;28;20423;-70
2022/06/02 01:10:14;;;;;;;4.53;4.23;;;13.60;26.80;;;;;;4976377;28;20794;-70
2022/06/02 01:13:22;;;;;;;4.30;4.00;;;13.50;26.70;;;;;;4976296;28;20419;-70
2022/06/02 01:16:15;;;;;;;5.37;4.93;;;13.40;27.10;;;;;;4968008;28;20475;-72
2022/06/02 01:19:04;;;;;;;4.73;4.33;;;13.40;27.00;;;;;;4977389;28;20420;-71
2022/06/02 01:21:55;;;;;;;4.50;4.20;;;13.40;27.00;;;;;;4977032;28;20421;-71
2022/06/02 01:24:58;;;;;;;4.63;4.33;;;13.30;26.50;;;;;;4976228;28;20426;-71
2022/06/02 01:27:50;;;;;;;5.87;5.47;;;13.40;26.20;;;;;;4976358;28;20417;-72
2022/06/02 01:30:38;;;;;;;4.70;4.33;;;13.50;25.80;;;;;;4976704;28;20408;-71
2022/06/02 01:33:33;;;;;;;5.03;4.67;;;13.50;25.80;;;;;;4976246;28;20471;-71
2022/06/02 01:36:17;;;;;;;5.33;4.97;;;13.40;26.20;;;;;;4976538;28;20466;-70
2022/06/02 01:38:56;;;;;;;5.73;5.33;;;13.40;25.50;;;;;;4975323;28;20522;-70
2022/06/02 01:41:30;;;;;;;5.30;4.90;;;13.40;25.70;;;;;;4976289;28;20416;-70
2022/06/02 01:44:08;;;;;;;5.27;4.87;;;13.30;25.80;;;;;;4976433;28;20470;-71
2022/06/02 01:46:41;;;;;;;5.10;4.80;;;13.40;25.80;;;;;;4976481;28;20898;-69
2022/06/02 01:49:30;;;;;;;5.10;4.73;;;13.40;25.50;;;;;;4975824;28;20767;-70
2022/06/02 01:52:14;;;;;;;6.13;5.20;;;13.30;25.90;;;;;;4975736;28;20409;-69
2022/06/02 01:55:02;;;;;;;5.47;4.97;;;13.30;25.40;;;;;;5113615;23;20465;-68
2022/06/02 01:58:12;;;;;;;5.80;5.33;;;13.30;25.70;;;;;;5015084;28;20423;-68
2022/06/02 02:00:37;;;;;;;5.50;5.10;;;13.30;25.30;;;;;;5015273;28;20410;-68
2022/06/02 02:03:13;;;;;;;5.50;5.20;;;13.30;24.90;;;;;;5014506;28;20410;-68
2022/06/02 02:05:46;;;;;;;6.03;5.63;;;13.30;24.90;;;;;;5014355;28;20282;-68
2022/06/02 02:08:19;;;;;;;6.03;5.63;;;13.20;24.80;;;;;;5014462;28;20480;-67
2022/06/02 02:11:09;;;;;;;5.77;5.27;;;13.10;24.70;;;;;;5014663;28;20808;-67
2022/06/02 02:14:03;;;;;;;5.73;5.37;;;13.20;24.80;;;;;;5014482;28;20410;-67
2022/06/02 02:16:40;;;;;;;5.93;5.63;;;13.20;24.80;;;;;;5013089;28;20501;-68
2022/06/02 02:19:30;;;;;;;6.17;5.77;;;13.20;24.60;;;;;;5014503;28;20439;-68
2022/06/02 02:22:57;;;;;;;6.83;6.43;;;13.20;24.80;;;;;;5014180;28;20403;-68
2022/06/02 02:25:50;;;;;;;5.93;5.63;;;13.20;24.30;;;;;;4992152;28;20454;-68
2022/06/02 02:28:43;;;;;;;6.37;5.93;;;13.20;24.20;;;;;;4992268;28;20427;-68
2022/06/02 02:31:09;;;;;;;6.30;5.93;;;13.20;24.20;;;;;;4987693;28;20433;-68
2022/06/02 02:33:52;;;;;;;5.70;5.40;;;13.10;24.70;;;;;;5013760;28;20417;-68
2022/06/02 02:36:51;;;;;;;6.30;5.93;;;13.10;24.80;;;;;;5013951;28;20577;-68
2022/06/02 02:39:58;;;;;;;6.37;5.87;;;13.20;24.80;;;;;;5009641;28;20430;-68
2022/06/02 02:42:39;;;;;;;6.60;6.20;;;13.20;24.90;;;;;;5013408;28;20934;-68
2022/06/02 02:45:33;;;;;;;5.93;5.43;;;13.00;25.50;;;;;;5013714;28;20429;-68
2022/06/02 02:48:12;;;;;;;6.50;6.00;;;13.10;25.40;;;;;;5013704;28;20772;-67
2022/06/02 02:50:44;;;;;;;6.10;5.50;;;13.10;24.90;;;;;;5012818;28;20411;-67
2022/06/02 02:53:10;;;;;;;5.60;5.17;;;13.10;24.70;;;;;;5012993;28;20415;-67
2022/06/02 02:55:53;;;;;;;5.93;5.37;;;13.00;24.70;;;;;;5013451;28;20474;-68
2022/06/02 02:58:43;;;;;;;5.97;5.67;;;13.00;25.00;;;;;;5013406;28;20230;-67
2022/06/02 03:01:31;;;;;;;5.83;4.80;;;12.80;25.50;;;;;;5002001;28;20453;-67
2022/06/02 03:04:27;;;;;;;4.60;4.30;;;12.80;25.80;;;;;;4993755;28;20405;-67
2022/06/02 03:06:54;;;;;;;5.17;4.80;;;12.70;26.00;;;;;;4994174;28;20519;-67
2022/06/02 03:09:40;;;;;;;5.60;5.20;;;12.60;25.90;;;;;;4993739;28;20419;-68
2022/06/02 03:12:17;;;;;;;5.20;4.80;;;12.60;25.80;;;;;;4993427;28;20420;-68
2022/06/02 03:15:01;;;;;;;4.93;4.63;;;12.60;25.70;;;;;;4993488;28;20484;-68
2022/06/02 03:17:29;;;;;;;7.00;4.93;;;12.60;25.50;;;;;;4993668;28;20411;-69
2022/06/02 03:20:01;;;;;;;5.30;4.80;;;12.60;25.50;;;;;;4993433;28;20416;-68
2022/06/02 03:23:12;;;;;;;4.90;4.70;;;12.70;25.20;;;;;;4993386;28;20407;-68
2022/06/02 03:25:49;;;;;;;4.97;4.67;;;12.70;24.50;;;;;;4993374;28;20439;-68
2022/06/02 03:28:42;;;;;;;5.07;4.67;;;12.70;24.50;;;;;;4993823;28;20741;-68
2022/06/02 03:31:19;;;;;;;6.90;6.30;;;12.80;24.90;;;;;;4993191;28;20418;-68
2022/06/02 03:34:06;;;;;;;4.80;4.50;;;12.80;24.70;;;;;;4993167;28;20415;-68
2022/06/02 03:37:23;;;;;;;6.17;4.83;;;12.70;25.30;;;;;;4992891;28;20502;-68
2022/06/02 03:39:55;;;;;;;5.80;5.40;;;12.70;25.40;;;;;;4970570;28;20430;-68
2022/06/02 03:42:44;;;;;;;6.10;5.50;;;12.70;25.10;;;;;;4992820;28;20442;-68
2022/06/02 03:45:44;;;;;;;4.57;4.27;;;12.60;25.00;;;;;;4993024;28;20590;-68
2022/06/02 03:48:28;;;;;;;5.53;5.13;;;12.70;25.10;;;;;;4993209;28;20431;-68
2022/06/02 03:51:12;;;;;;;4.90;4.50;;;12.70;25.20;;;;;;4992631;28;20422;-68
2022/06/02 03:53:43;;;;;;;6.43;5.93;;;12.80;24.50;;;;;;4993163;28;20417;-68
2022/06/02 03:56:27;;;;;;;5.90;5.50;;;12.80;24.50;;;;;;4992429;28;20482;-68
2022/06/02 03:59:05;;;;;;;5.17;4.87;;;12.80;24.60;;;;;;4993089;28;20896;-67
2022/06/02 04:01:37;;;;;;;4.50;4.20;;;12.90;24.60;;;;;;4992692;28;20414;-69
2022/06/02 04:04:37;;;;;;;5.40;5.00;;;12.90;24.60;;;;;;4992524;28;20411;-68
2022/06/02 04:07:18;;;;;;;5.70;5.30;;;13.00;24.70;;;;;;4992722;28;20445;-68
2022/06/02 04:10:12;;;;;;;5.40;5.10;;;13.00;24.60;;;;;;4992949;28;20912;-68
2022/06/02 04:16:11;;;;;;;6.07;5.77;;;13.00;24.20;;;;;;4992404;28;20466;-69
2022/06/02 04:19:01;;;;;;;6.87;6.50;;;13.20;24.00;;;;;;4992567;28;20521;-68
2022/06/02 04:21:52;;;;;;;7.13;6.30;;;13.30;23.40;;;;;;4992137;28;20400;-67
2022/06/02 04:24:29;;;;;;;6.47;6.07;;;13.30;23.40;;;;;;4992460;28;20407;-67
2022/06/02 04:27:02;;;;;;;5.83;5.57;;;13.40;23.40;;;;;;4992408;28;20414;-67
2022/06/02 04:30:01;;;;;;;7.10;6.80;;;13.50;23.20;;;;;;4992538;28;20414;-68
2022/06/02 04:32:42;;;;;;;7.03;6.53;;;13.60;22.90;;;;;;4992328;28;20426;-68
2022/06/02 04:35:30;;;;;;;7.60;7.20;;;13.80;22.30;;;;;;4992242;28;20459;-68
2022/06/02 04:38:10;;;;;;;7.77;7.27;;;13.90;22.00;;;;;;4992844;28;20475;-68
2022/06/02 04:40:39;;;;;;;8.17;7.77;;;14.10;21.80;;;;;;4992719;28;20408;-68
2022/06/02 04:43:32;;;;;;;8.83;8.40;;;14.30;21.30;;;;;;4992180;28;20419;-68
2022/06/02 04:46:07;;;;;;;9.70;9.10;;;14.50;19.80;;;;;;4992418;28;20431;-68
2022/06/02 04:48:50;;;;;;;9.67;9.07;;;14.80;19.90;;;;;;4992544;28;20592;-66
2022/06/02 04:51:44;;;;;;;9.80;9.27;;;15.10;19.70;;;;;;4992112;28;20428;-69
2022/06/02 04:54:13;;;;;;;10.60;10.00;;;15.60;19.10;;;;;;4990913;28;21027;-67
2022/06/02 04:56:58;;;;;;;10.90;10.40;;;16.60;18.30;;;;;;4991959;28;20988;-68
2022/06/02 04:59:48;;;;;;;14.50;13.80;;;18.00;16.30;;;;;;4992143;28;20447;-68
2022/06/02 05:02:24;;;;;;;16.40;15.50;;;20.00;13.30;;;;;;4992031;28;20423;-68
2022/06/02 05:04:51;;;;;;;16.43;15.70;;;21.60;11.30;;;;;;4992173;28;20435;-68
2022/06/02 05:07:55;;;;;;;15.67;14.97;;;23.20;9.50;;;;;;4992147;28;20418;-68
2022/06/02 05:10:44;;;;;;;16.20;15.60;;;24.00;5.70;;;;;;4992254;28;20420;-68
2022/06/02 05:13:20;;;;;;;16.87;15.87;;;24.80;3.70;;;;;;4991788;28;20435;-68
2022/06/02 05:16:00;;;;;;;15.50;14.90;;;25.80;3.70;;;;;;4994759;28;20454;-68
2022/06/02 05:18:55;;;;;;;16.83;15.90;;;27.10;1.70;;;;;;4995975;28;20814;-67
2022/06/02 05:21:40;;;;;;;16.23;15.53;;;28.30;1.00;;;;;;4995283;28;20408;-67
2022/06/02 05:24:26;;;;;;;15.80;15.20;;;29.00;1.00;;;;;;4995369;28;20411;-67
2022/06/02 05:27:29;;;;;;;15.80;15.20;;;28.70;1.00;;;;;;4995588;28;20920;-67
2022/06/02 05:30:29;;;;;;;15.17;14.57;;;27.70;1.00;;;;;;4995715;28;20465;-68
2022/06/02 05:33:19;;;;;;;14.50;14.00;;;28.10;1.00;;;;;;4995090;28;20916;-67
2022/06/02 05:36:28;;;;;;;15.27;14.77;;;28.80;1.00;;;;;;4994975;28;21055;-68
2022/06/02 05:39:12;;;;;;;15.60;15.00;;;28.60;1.00;;;;;;4986195;28;20777;-67
2022/06/02 05:42:04;;;;;;;15.57;14.97;;;29.00;1.00;;;;;;4995390;28;20916;-66
2022/06/02 05:44:55;;;;;;;15.53;14.90;;;29.90;1.00;;;;;;4995019;28;20436;-67
2022/06/02 05:47:38;;;;;;;15.90;15.20;;;30.30;1.00;;;;;;4995176;28;20411;-67
2022/06/02 05:50:39;;;;;;;15.30;14.70;;;31.30;1.00;;;;;;4995328;28;20499;-67
2022/06/02 05:53:20;;;;;;;16.30;15.50;;;30.20;1.00;;;;;;4972696;28;20463;-66
2022/06/02 05:56:06;;;;;;;15.50;14.90;;;30.80;1.00;;;;;;4992679;28;20478;-69
2022/06/02 05:58:37;;;;;;;15.30;14.47;;;31.90;1.00;;;;;;4995077;28;20757;-69
2022/06/02 06:01:23;;;;;;;14.60;13.97;;;32.40;1.00;;;;;;4994927;28;20909;-69
2022/06/02 06:04:40;;;;;;;15.03;14.43;;;32.70;1.00;;;;;;4994781;28;20901;-68
2022/06/02 06:07:30;;;;;;;15.17;14.57;;;32.80;1.00;;;;;;4987727;28;20462;-69
2022/06/02 06:10:14;;;;;;;14.80;14.30;;;29.70;1.00;;;;;;4994552;28;20763;-69
2022/06/02 06:12:58;;;;;;;15.50;14.90;;;29.60;1.00;;;;;;4994547;28;20412;-69
2022/06/02 06:15:42;;;;;;;15.00;14.27;;;29.30;1.00;;;;;;4994540;28;20478;-67
2022/06/02 06:18:42;;;;;;;14.53;14.03;;;30.20;1.00;;;;;;4994424;28;20412;-68
2022/06/02 06:21:45;;;;;;;15.13;14.37;;;27.30;1.00;;;;;;4994534;28;20415;-68
2022/06/02 06:24:50;;;;;;;14.80;14.30;;;28.90;1.00;;;;;;4994419;28;20496;-68
2022/06/02 06:27:40;;;;;;;13.93;13.43;;;23.90;1.00;;;;;;4994350;28;20518;-68
2022/06/02 06:30:33;;;;;;;13.70;13.20;;;23.30;1.00;;;;;;4994318;28;20447;-67
2022/06/02 06:33:05;;;;;;;13.57;13.07;;;23.80;1.00;;;;;;4993986;28;20426;-68
2022/06/02 06:36:08;;;;;;;13.10;12.60;;;23.90;1.00;;;;;;4993948;28;20810;-69
2022/06/02 06:38:54;;;;;;;13.73;13.13;;;24.80;1.00;;;;;;4982710;28;20463;-70
2022/06/02 06:41:41;;;;;;;12.43;12.03;;;25.50;1.00;;;;;;4994042;28;20451;-70
2022/06/02 06:44:15;;;;;;;13.80;13.20;;;25.40;1.00;;;;;;4994123;28;20447;-70
2022/06/02 06:47:04;;;;;;;13.80;13.23;;;24.20;1.00;;;;;;4994198;28;20411;-70
2022/06/02 06:50:03;;;;;;;13.47;12.87;;;22.70;1.00;;;;;;5008954;28;20419;-70
2022/06/02 06:52:46;;;;;;;13.27;12.77;;;23.00;1.10;;;;;;5013441;28;20417;-68
2022/06/02 06:55:33;;;;;;;13.17;12.60;;;22.50;1.50;;;;;;5013443;28;20470;-68
2022/06/02 06:58:10;;;;;;;13.80;13.10;;;22.10;2.20;;;;;;5013673;28;20962;-68
2022/06/02 07:00:47;;;;;;;12.90;12.30;;;21.40;3.10;;;;;;5013500;28;20798;-68
2022/06/02 07:03:37;;;;;;;13.07;12.57;;;21.60;3.30;;;;;;5013301;28;20839;-71
2022/06/02 07:06:11;;;;;;;13.00;12.50;;;22.50;1.70;;;;;;5013754;28;20463;-68
2022/06/02 07:08:43;;;;;;;13.00;12.20;;;21.40;2.90;;;;;;5013720;28;20410;-68
2022/06/02 07:14:51;;;;;;;12.47;11.93;;;23.10;1.50;;;;;;5009122;28;22928;-68
2022/06/02 07:17:35;;;;;;;12.67;11.97;;;22.80;1.50;;;;;;5002040;28;20460;-68
2022/06/02 07:20:10;;;;;;;12.60;12.10;;;23.80;1.30;;;;;;4993430;28;20404;-68
2022/06/02 07:23:05;;;;;;;12.00;11.60;;;23.00;1.00;;;;;;5012932;28;20402;-68
2022/06/02 07:25:45;;;;;;;12.27;11.77;;;24.10;1.10;;;;;;5013211;28;20431;-68
2022/06/02 07:28:36;;;;;;;13.30;12.80;;;25.10;1.00;;;;;;5005146;28;20428;-68
2022/06/02 07:31:15;;;;;;;12.60;12.10;;;25.10;1.00;;;;;;4994254;28;20434;-69
2022/06/02 07:33:58;;;;;;;13.40;12.80;;;25.70;1.00;;;;;;5001707;28;20530;-69
2022/06/02 07:36:59;;;;;;;12.10;11.60;;;24.80;1.00;;;;;;5012800;28;20467;-68
2022/06/02 07:39:58;;;;;;;13.87;12.80;;;24.50;1.00;;;;;;4979869;28;21073;-67
2022/06/02 07:42:53;;;;;;;13.23;12.73;;;24.20;1.10;;;;;;4971640;28;20431;-68
2022/06/02 07:45:27;;;;;;;13.20;12.70;;;24.70;1.00;;;;;;5012232;28;20447;-68
2022/06/02 07:48:07;;;;;;;12.93;12.43;;;23.90;1.00;;;;;;5012890;28;20501;-68
2022/06/02 07:50:35;;;;;;;13.10;12.60;;;23.60;1.00;;;;;;5013066;28;20423;-68
2022/06/02 07:53:08;;;;;;;13.00;12.50;;;23.40;1.80;;;;;;5012398;28;20415;-68
2022/06/02 07:56:08;;;;;;;13.60;13.10;;;24.20;1.10;;;;;;5012894;28;20557;-69
2022/06/02 07:59:18;;;;;;;13.70;13.03;;;22.50;2.20;;;;;;5012388;28;20522;-69
2022/06/02 08:02:19;;;;;;;13.50;13.00;;;23.50;2.00;;;;;;5012200;28;20421;-69
2022/06/02 08:05:28;;;;;;;13.17;12.60;;;24.50;1.30;;;;;;5012593;28;20447;-69
2022/06/02 08:07:59;;;;;;;14.17;13.10;;;24.30;1.00;;;;;;4936173;29;20434;-70
2022/06/02 08:10:52;;;;;;;13.90;13.10;;;25.40;1.00;;;;;;4952045;29;20421;-70
2022/06/02 08:13:31;;;;;;;14.07;13.27;;;25.70;1.00;;;;;;4993115;28;20480;-71
2022/06/02 08:15:59;;;;;;;13.30;12.80;;;24.50;1.00;;;;;;4991429;28;20471;-71
2022/06/02 08:18:38;;;;;;;14.03;13.20;;;25.30;1.00;;;;;;5009075;28;20426;-71
2022/06/02 08:21:34;;;;;;;14.10;13.50;;;24.10;1.00;;;;;;5012411;28;20896;-72
2022/06/02 08:24:07;;;;;;;13.90;13.37;;;23.80;1.00;;;;;;4994866;28;20435;-71
2022/06/02 08:27:12;;;;;;;14.63;13.60;;;23.00;1.20;;;;;;5009678;28;20906;-71
2022/06/02 08:30:11;;;;;;;13.87;13.27;;;21.80;3.10;;;;;;5012016;28;20427;-69
2022/06/02 08:32:52;;;;;;;13.67;12.97;;;22.20;2.90;;;;;;5010191;28;20437;-70
2022/06/02 08:35:32;;;;;;;14.23;13.63;;;22.70;3.00;;;;;;5012924;28;20830;-69
2022/06/02 08:38:15;;;;;;;13.17;12.67;;;22.20;3.70;;;;;;5012579;28;20415;-71
2022/06/02 08:41:28;;;;;;;14.97;14.30;;;22.80;4.20;;;;;;5012218;28;20442;-71
2022/06/02 08:44:00;;;;;;;13.67;13.17;;;22.90;2.50;;;;;;5011319;28;20978;-70
2022/06/02 08:46:44;;;;;;;13.93;13.40;;;23.60;2.80;;;;;;5011862;28;20449;-72
2022/06/02 08:49:47;;;;;;;14.10;13.50;;;23.70;1.40;;;;;;5012764;28;20411;-69
2022/06/02 08:52:31;;;;;;;13.60;13.10;;;23.10;2.20;;;;;;4996247;28;20426;-70
2022/06/02 08:55:20;;;;;;;14.53;13.90;;;23.30;2.30;;;;;;4995615;28;20443;-69
2022/06/02 08:58:15;;;;;;;14.10;13.60;;;22.10;3.40;;;;;;4996221;28;20419;-68
2022/06/02 09:01:11;;;;;;;13.83;13.03;;;22.20;4.00;;;;;;5002579;28;20418;-70
2022/06/02 09:04:04;;;;;;;13.53;12.93;;;22.40;3.70;;;;;;5015457;28;20422;-68
2022/06/02 09:06:50;;;;;;;14.10;13.60;;;21.30;4.60;;;;;;5015217;28;20466;-68
2022/06/02 09:09:29;;;;;;;14.17;13.60;;;20.60;6.20;;;;;;5000329;28;20426;-67
2022/06/02 09:12:05;;;;;;;18.93;15.30;;;20.40;6.60;;;;;;5015461;28;20501;-70
2022/06/02 09:14:43;;;;;;;14.20;13.67;;;20.60;6.90;;;;;;5015794;28;20887;-69
2022/06/02 09:18:04;;;;;;;13.10;12.60;;;20.40;6.60;;;;;;5013039;28;20431;-68
2022/06/02 09:20:48;;;;;;;13.77;13.10;;;20.00;6.70;;;;;;5008242;28;20426;-68
2022/06/02 09:23:44;;;;;;;13.27;12.27;;;20.10;7.60;;;;;;5006793;28;20442;-68
2022/06/02 09:27:22;;;;;;;12.87;12.37;;;19.60;7.30;;;;;;4992461;28;20482;-66
2022/06/02 09:29:59;;;;;;;12.50;12.00;;;19.70;7.40;;;;;;4947851;28;20504;-68
2022/06/02 09:32:49;;;;;;;13.27;12.57;;;19.80;7.40;;;;;;5010903;28;20437;-68
2022/06/02 09:35:23;;;;;;;13.93;13.03;;;19.70;8.00;;;;;;5010664;28;20465;-69
2022/06/02 09:37:58;;;;;;;12.93;12.43;;;19.90;7.50;;;;;;5009421;28;20798;-69
2022/06/02 09:40:51;;;;;;;13.53;12.73;;;20.10;7.60;;;;;;5013976;28;20423;-65
2022/06/02 09:43:54;;;;;;;12.80;12.30;;;20.30;7.80;;;;;;5014414;28;20443;-66
2022/06/02 09:46:52;;;;;;;12.93;12.30;;;20.40;7.80;;;;;;5012856;28;20458;-68
2022/06/02 09:49:37;;;;;;;13.80;13.10;;;20.30;7.80;;;;;;5016752;28;20458;-68
2022/06/02 09:52:35;;;;;;;13.60;12.90;;;20.60;7.60;;;;;;5014796;28;20414;-67
2022/06/02 09:55:28;;;;;;;12.97;12.37;;;20.50;7.30;;;;;;5014354;28;20482;-68
2022/06/02 09:57:56;;;;;;;13.70;13.10;;;20.60;7.50;;;;;;5014821;28;20415;-69
2022/06/02 10:00:31;;;;;;;13.80;13.00;;;20.60;7.40;;;;;;5014281;28;20418;-67
2022/06/02 10:03:27;;;;;;;14.40;13.30;;;20.70;7.60;;;;;;5014397;28;20794;-67
2022/06/02 10:06:23;;;;;;;13.10;12.60;;;20.90;6.60;;;;;;4995239;28;20431;-69
2022/06/02 10:09:07;;;;;;;14.10;13.03;;;21.00;7.00;;;;;;4996483;28;20415;-67
2022/06/02 10:11:35;;;;;;;12.53;12.03;;;21.00;6.50;;;;;;5014114;28;20581;-67
2022/06/02 10:14:09;;;;;;;13.20;12.70;;;20.60;6.60;;;;;;5014482;28;20931;-67
2022/06/02 10:16:53;;;;;;;13.97;13.37;;;20.80;6.10;;;;;;5014346;28;20484;-68
2022/06/02 10:19:42;;;;;;;13.10;12.60;;;20.90;6.40;;;;;;5014196;28;20940;-69
2022/06/02 10:22:30;;;;;;;13.80;12.90;;;20.80;6.90;;;;;;4976629;28;20924;-66
2022/06/02 10:25:27;;;;;;;14.23;13.17;;;20.60;6.90;;;;;;5013681;28;20501;-67
2022/06/02 10:28:20;;;;;;;13.90;13.40;;;21.00;7.00;;;;;;5013847;28;20418;-67
2022/06/02 10:31:10;;;;;;;12.80;12.20;;;21.40;6.10;;;;;;5013868;28;20931;-67
2022/06/02 10:34:23;;;;;;;14.00;13.40;;;21.50;6.00;;;;;;5013939;28;20461;-68
2022/06/02 10:37:03;;;;;;;13.33;12.63;;;21.30;5.60;;;;;;4994553;28;20570;-69
2022/06/02 10:40:07;;;;;;;13.30;12.80;;;21.30;6.50;;;;;;5005737;28;20426;-68
2022/06/02 10:43:02;;;;;;;13.50;13.00;;;21.30;6.40;;;;;;5013834;28;20463;-69
2022/06/02 10:45:37;;;;;;;13.13;12.63;;;21.50;6.20;;;;;;5013752;28;20438;-69
2022/06/02 10:48:33;;;;;;;12.87;12.33;;;21.40;6.40;;;;;;5013873;28;20411;-68
2022/06/02 10:51:36;;;;;;;14.30;13.67;;;21.10;5.70;;;;;;5013650;28;20429;-70
2022/06/02 10:54:37;;;;;;;13.27;12.77;;;21.10;6.30;;;;;;5013351;28;20778;-67
2022/06/02 10:57:15;;;;;;;13.50;13.00;;;21.40;6.50;;;;;;5013603;28;20458;-67
2022/06/02 10:59:58;;;;;;;13.10;12.60;;;21.20;6.60;;;;;;5013626;28;20433;-67
2022/06/02 11:03:05;;;;;;;13.20;12.70;;;21.50;6.20;;;;;;5013324;28;20393;-68
2022/06/02 11:05:36;;;;;;;13.83;13.20;;;21.50;5.70;;;;;;4993789;28;20439;-68
2022/06/02 11:08:38;;;;;;;13.33;12.53;;;21.40;6.20;;;;;;4997164;28;20419;-67
2022/06/02 11:11:17;;;;;;;14.43;13.50;;;21.70;6.40;;;;;;5013408;28;20780;-67
2022/06/02 11:14:10;;;;;;;13.40;12.90;;;21.40;6.00;;;;;;5012436;28;20426;-68
2022/06/02 11:17:01;;;;;;;12.70;12.20;;;21.60;6.20;;;;;;5013147;28;20477;-68
2022/06/02 11:19:59;;;;;;;13.70;13.00;;;21.70;6.10;;;;;;5013286;28;20413;-68
2022/06/02 11:22:56;;;;;;;13.90;13.30;;;21.80;5.80;;;;;;4991419;28;20411;-68
2022/06/02 11:25:44;;;;;;;14.20;13.70;;;21.60;6.00;;;;;;5013052;28;20949;-68
2022/06/02 11:28:46;;;;;;;12.50;12.00;;;21.80;6.00;;;;;;5003754;28;20477;-68
2022/06/02 11:31:44;;;;;;;13.57;13.07;;;21.90;6.10;;;;;;5013289;28;20413;-66
2022/06/02 11:34:31;;;;;;;14.20;13.40;;;21.80;5.80;;;;;;5013000;28;20457;-68
2022/06/02 11:37:08;;;;;;;12.87;12.27;;;21.80;5.70;;;;;;5013155;28;20465;-69
2022/06/02 11:40:02;;;;;;;13.60;13.10;;;22.20;5.50;;;;;;5012870;28;20407;-69
2022/06/02 11:42:48;;;;;;;13.17;12.67;;;22.50;5.70;;;;;;5012427;28;20434;-66
2022/06/02 11:45:38;;;;;;;13.60;12.90;;;23.00;5.00;;;;;;4996578;28;21023;-67
2022/06/02 11:48:06;;;;;;;14.13;13.37;;;23.30;4.10;;;;;;4998782;28;20498;-67
2022/06/02 11:50:59;;;;;;;14.50;13.80;;;23.50;3.80;;;;;;5012483;28;20973;-66
2022/06/02 11:53:43;;;;;;;13.90;13.20;;;23.10;4.60;;;;;;4997215;28;20434;-68
2022/06/02 11:56:37;;;;;;;14.07;13.47;;;23.60;4.30;;;;;;5012383;28;20561;-68
2022/06/02 11:59:18;;;;;;;13.67;13.07;;;23.70;3.90;;;;;;5012760;28;20955;-68
2022/06/02 12:01:54;;;;;;;14.40;13.40;;;23.70;4.30;;;;;;5012510;28;20422;-66
2022/06/02 12:04:49;;;;;;;13.67;13.07;;;23.70;3.90;;;;;;5006690;28;20428;-65
2022/06/02 12:07:35;;;;;;;13.43;12.93;;;23.50;3.90;;;;;;4993806;28;20769;-68
2022/06/02 12:10:25;;;;;;;12.70;12.20;;;23.40;3.40;;;;;;5005837;28;20434;-68
2022/06/02 12:13:04;;;;;;;13.23;12.70;;;23.10;3.80;;;;;;5012316;28;20518;-68
2022/06/02 12:15:48;;;;;;;12.70;12.00;;;23.30;4.10;;;;;;5011699;28;20469;-68
2022/06/02 12:18:44;;;;;;;12.90;12.40;;;23.70;3.40;;;;;;4992823;28;20423;-67
2022/06/02 12:21:24;;;;;;;13.90;13.30;;;23.60;4.00;;;;;;5003719;28;20458;-68
2022/06/02 12:24:08;;;;;;;13.30;12.80;;;23.40;3.70;;;;;;5011916;28;20465;-68
2022/06/02 12:26:42;;;;;;;14.33;13.67;;;24.00;3.50;;;;;;5012171;28;20450;-68
2022/06/02 12:29:16;;;;;;;14.07;13.50;;;24.20;3.30;;;;;;5012323;28;20543;-68
2022/06/02 12:32:10;;;;;;;13.37;12.80;;;24.40;3.50;;;;;;5011945;28;20465;-68
2022/06/02 12:34:44;;;;;;;14.00;13.50;;;24.40;2.70;;;;;;5012187;28;20450;-68
2022/06/02 12:37:28;;;;;;;14.50;13.57;;;24.80;2.90;;;;;;5011813;28;20967;-68
2022/06/02 12:39:57;;;;;;;13.43;12.80;;;25.00;1.70;;;;;;5011170;28;20423;-68
2022/06/02 12:42:34;;;;;;;13.80;13.30;;;24.30;2.10;;;;;;4993982;28;20431;-69
2022/06/02 12:45:17;;;;;;;13.77;13.17;;;24.60;2.30;;;;;;5012685;28;20458;-69
2022/06/02 12:48:01;;;;;;;13.27;12.77;;;24.70;2.50;;;;;;5012096;28;20431;-67
2022/06/02 12:51:00;;;;;;;13.60;13.00;;;24.70;2.20;;;;;;5012402;28;20506;-67
2022/06/02 12:53:53;;;;;;;13.80;13.10;;;24.60;3.50;;;;;;5011872;28;20446;-68
2022/06/02 12:56:39;;;;;;;13.40;12.90;;;24.80;2.30;;;;;;5011668;28;20988;-69
2022/06/02 12:59:23;;;;;;;13.10;12.60;;;24.80;3.00;;;;;;5011767;28;20457;-67
2022/06/02 13:01:55;;;;;;;13.83;13.17;;;25.00;2.20;;;;;;5011626;28;20430;-68
2022/06/02 13:04:57;;;;;;;13.07;12.47;;;24.40;2.10;;;;;;5012216;28;20505;-68
2022/06/02 13:07:23;;;;;;;12.43;11.90;;;23.90;3.20;;;;;;5011717;28;20748;-68
2022/06/02 13:10:18;;;;;;;14.70;14.10;;;23.80;3.50;;;;;;5011798;28;20513;-69
2022/06/02 13:12:50;;;;;;;14.10;13.50;;;23.90;3.90;;;;;;5012297;28;20551;-69
2022/06/02 13:16:02;;;;;;;14.23;13.67;;;23.90;3.30;;;;;;5013472;28;20510;-67
2022/06/02 13:18:51;;;;;;;14.40;13.80;;;23.80;3.20;;;;;;4970203;28;21004;-67
2022/06/02 13:21:41;;;;;;;14.47;13.77;;;23.60;3.70;;;;;;4992330;28;20420;-69
2022/06/02 13:24:14;;;;;;;14.33;13.73;;;23.30;3.50;;;;;;4992234;28;20414;-69
2022/06/02 13:27:23;;;;;;;13.97;13.27;;;23.50;3.60;;;;;;4992059;28;20503;-68
2022/06/02 13:30:00;;;;;;;13.93;13.23;;;23.30;3.80;;;;;;4996514;28;20465;-68
2022/06/02 13:33:05;;;;;;;14.83;14.10;;;23.40;4.00;;;;;;4992148;28;20751;-67
2022/06/02 13:36:13;;;;;;;14.63;14.03;;;23.30;3.60;;;;;;4965729;28;20498;-69
2022/06/02 13:39:01;;;;;;;15.03;14.27;;;23.20;4.20;;;;;;5015150;28;20479;-68
2022/06/02 13:42:02;;;;;;;14.47;13.70;;;23.00;4.00;;;;;;5015399;28;20422;-68
2022/06/02 13:44:56;;;;;;;14.00;13.30;;;23.40;4.20;;;;;;5007820;28;20426;-67
2022/06/02 13:47:24;;;;;;;14.13;13.37;;;23.40;3.90;;;;;;5010249;28;20422;-67
2022/06/02 13:50:15;;;;;;;13.23;12.73;;;23.30;4.30;;;;;;5013665;28;20534;-69
2022/06/02 13:52:52;;;;;;;13.83;13.33;;;23.20;4.40;;;;;;5014686;28;20426;-69
2022/06/02 13:59:03;;;;;;;13.40;12.87;;;23.10;4.80;;;;;;4970412;28;20792;-68
2022/06/02 14:01:55;;;;;;;13.50;13.00;;;23.10;5.10;;;;;;4973874;28;20450;-68
2022/06/02 14:04:39;;;;;;;13.47;12.97;;;23.50;4.80;;;;;;4975543;28;20799;-67
2022/06/02 14:07:28;;;;;;;13.40;12.60;;;23.80;3.90;;;;;;4972255;28;20453;-68
2022/06/02 14:10:17;;;;;;;12.80;12.30;;;23.90;4.30;;;;;;4965516;28;20444;-68
2022/06/02 14:13:01;;;;;;;12.80;12.30;;;24.20;3.70;;;;;;4975003;28;20460;-68
2022/06/02 14:16:07;;;;;;;12.47;11.97;;;24.00;3.70;;;;;;4974441;28;20460;-68
2022/06/02 14:18:57;;;;;;;13.40;12.70;;;23.50;3.70;;;;;;4956389;28;20417;-68
2022/06/02 14:21:45;;;;;;;12.80;12.30;;;23.20;4.00;;;;;;4955830;28;20943;-68
2022/06/02 14:24:27;;;;;;;12.80;12.23;;;23.10;4.00;;;;;;4941752;28;20430;-68
2022/06/02 14:27:37;;;;;;;13.63;12.73;;;22.50;4.70;;;;;;4959159;28;20444;-68
2022/06/02 14:30:11;;;;;;;12.90;12.40;;;22.50;4.70;;;;;;4938907;29;20938;-68
2022/06/02 14:32:51;;;;;;;13.33;12.80;;;22.70;4.80;;;;;;4936422;29;20405;-68